Time;durP1;ratioP1;P1;durP2;ratioP2;P2;SDS_P1;SDS_P2;PMS_P1;PMS_P2;Temp;Humidity;BMP_temperature;BMP_pressure;BME280_temperature;BME280_humidity;BME280_pressure;Samples;Min_cycle;Max_cycle;Signal;HPM_P1;HPM_P2
2021/11/17 02:27:09;;;;;;;3.33;1.60;;;9.00;99.90;;;;;;4908106;29;20190;-55
2021/11/17 02:29:56;;;;;;;2.50;1.83;;;9.00;99.90;;;;;;4909081;29;20136;-54
2021/11/17 02:32:32;;;;;;;2.72;1.80;;;8.90;99.90;;;;;;4912354;29;20497;-55
2021/11/17 02:35:06;;;;;;;2.65;2.28;;;8.90;99.90;;;;;;4912286;29;20090;-56
2021/11/17 02:37:44;;;;;;;2.58;1.77;;;8.90;99.90;;;;;;4912314;29;20056;-56
2021/11/17 02:40:32;;;;;;;2.15;1.67;;;8.90;99.90;;;;;;4892829;29;20104;-54
2021/11/17 02:43:24;;;;;;;2.55;1.70;;;8.80;99.90;;;;;;4891695;29;20049;-56
2021/11/17 02:46:12;;;;;;;2.75;1.75;;;8.80;99.90;;;;;;4896287;29;20131;-56
2021/11/17 02:48:58;;;;;;;2.20;1.73;;;8.70;99.90;;;;;;4910339;29;20456;-55
2021/11/17 02:51:50;;;;;;;2.80;1.80;;;8.70;99.90;;;;;;4910352;29;20056;-55
2021/11/17 02:54:47;;;;;;;1.42;1.30;;;8.60;99.90;;;;;;4910906;29;20127;-56
2021/11/17 02:57:32;;;;;;;2.20;1.90;;;8.60;99.90;;;;;;4910448;29;20135;-55
2021/11/17 03:00:05;;;;;;;2.58;1.80;;;8.60;99.90;;;;;;4909370;29;20106;-54
2021/11/17 03:02:50;;;;;;;2.78;1.85;;;8.50;99.90;;;;;;4909903;29;20085;-56
2021/11/17 03:05:17;;;;;;;1.77;1.48;;;8.50;99.90;;;;;;4910533;29;20056;-54
2021/11/17 03:07:53;;;;;;;2.13;1.92;;;8.60;99.90;;;;;;4910364;29;20124;-55
2021/11/17 03:10:28;;;;;;;1.73;1.52;;;8.50;99.90;;;;;;4910945;29;20142;-56
2021/11/17 03:13:15;;;;;;;3.05;2.03;;;8.60;99.90;;;;;;4908801;29;20101;-55
2021/11/17 03:16:16;;;;;;;2.63;1.73;;;8.60;99.90;;;;;;4907971;29;20076;-55
2021/11/17 03:18:50;;;;;;;2.60;1.70;;;8.60;99.90;;;;;;4901646;29;20080;-53
2021/11/17 03:21:16;;;;;;;;;;;8.60;99.90;;;;;;4910492;29;20083;-53
2021/11/17 03:24:11;;;;;;;2.35;1.67;;;8.50;99.90;;;;;;4910002;29;19923;-55
2021/11/17 03:26:55;;;;;;;2.20;1.50;;;8.50;99.90;;;;;;4909578;29;20481;-53
2021/11/17 03:29:53;;;;;;;2.30;1.75;;;8.50;99.90;;;;;;4908805;29;20091;-55
2021/11/17 03:32:42;;;;;;;2.03;1.33;;;8.50;99.90;;;;;;4840755;29;20432;-56
2021/11/17 03:35:18;;;;;;;2.08;1.45;;;8.40;99.90;;;;;;4893052;29;20088;-53
2021/11/17 03:38:00;;;;;;;1.50;1.30;;;8.40;99.90;;;;;;4908568;29;20092;-55
2021/11/17 03:41:02;;;;;;;1.90;1.38;;;8.40;99.90;;;;;;4910106;29;20131;-56
2021/11/17 03:44:04;;;;;;;2.33;2.05;;;8.40;99.90;;;;;;4892466;29;20572;-57
2021/11/17 03:46:36;;;;;;;2.90;2.20;;;8.40;99.90;;;;;;4907092;29;20508;-56
2021/11/17 03:49:30;;;;;;;3.65;2.13;;;8.40;99.90;;;;;;4908410;29;20103;-56
2021/11/17 03:52:10;;;;;;;3.10;2.25;;;8.40;99.90;;;;;;4910215;29;20127;-55
2021/11/17 03:55:12;;;;;;;2.65;2.05;;;8.40;99.90;;;;;;4909941;29;20052;-53
2021/11/17 03:58:00;;;;;;;2.40;1.90;;;8.30;99.90;;;;;;4909147;29;20048;-53
2021/11/17 04:00:33;;;;;;;2.60;1.92;;;8.30;99.90;;;;;;4910006;29;20090;-54
2021/11/17 04:03:18;;;;;;;2.40;1.50;;;8.30;99.90;;;;;;4909615;29;20095;-53
2021/11/17 04:06:12;;;;;;;1.55;1.38;;;8.20;99.90;;;;;;4909884;29;20132;-56
2021/11/17 04:09:01;;;;;;;2.35;1.65;;;8.20;99.90;;;;;;4909926;29;20083;-56
2021/11/17 04:11:40;;;;;;;2.08;1.27;;;8.10;99.90;;;;;;4908973;29;20744;-54
2021/11/17 04:14:22;;;;;;;1.60;1.33;;;8.00;99.90;;;;;;4908340;29;20086;-55
2021/11/17 04:17:11;;;;;;;2.05;1.70;;;8.00;99.90;;;;;;4909982;29;20576;-55
2021/11/17 04:20:02;;;;;;;2.30;1.40;;;8.00;99.90;;;;;;4909441;29;20542;-56
2021/11/17 04:22:41;;;;;;;2.67;1.90;;;7.90;99.90;;;;;;4909634;29;20163;-56
2021/11/17 04:25:30;;;;;;;2.42;1.63;;;7.90;99.90;;;;;;4909644;29;20060;-55
2021/11/17 04:27:56;;;;;;;1.77;1.40;;;7.90;99.90;;;;;;4908189;29;20083;-55
2021/11/17 04:30:42;;;;;;;2.33;1.67;;;7.90;99.90;;;;;;4909591;29;20131;-53
2021/11/17 04:33:22;;;;;;;1.70;1.42;;;7.90;99.90;;;;;;4909320;29;20040;-54
2021/11/17 04:36:14;;;;;;;1.88;1.25;;;7.90;99.90;;;;;;4909905;29;20083;-56
2021/11/17 04:39:06;;;;;;;3.00;1.63;;;7.90;99.90;;;;;;4875469;29;20053;-57
2021/11/17 04:41:55;;;;;;;2.15;1.60;;;7.80;99.90;;;;;;4891994;29;20127;-56
2021/11/17 04:44:40;;;;;;;1.83;1.27;;;7.90;99.90;;;;;;4908168;29;20456;-56
2021/11/17 04:47:39;;;;;;;1.50;1.00;;;7.90;99.90;;;;;;4909210;29;20084;-56
2021/11/17 04:50:27;;;;;;;1.45;1.10;;;7.80;99.90;;;;;;4893127;29;20079;-56
2021/11/17 04:53:15;;;;;;;2.20;1.40;;;7.80;99.90;;;;;;4909002;29;20114;-56
2021/11/17 04:56:22;;;;;;;1.65;1.17;;;7.80;99.90;;;;;;4909703;29;20124;-55
2021/11/17 04:59:17;;;;;;;1.60;0.98;;;7.80;99.90;;;;;;4907967;29;20238;-55
2021/11/17 05:01:49;;;;;;;1.52;1.40;;;7.80;99.90;;;;;;4909435;29;20135;-55
2021/11/17 05:04:45;;;;;;;2.30;1.20;;;7.80;99.90;;;;;;4908561;29;20087;-56
2021/11/17 05:07:27;;;;;;;1.55;1.17;;;7.80;99.90;;;;;;4910473;29;20460;-53
2021/11/17 05:10:13;;;;;;;1.52;1.40;;;7.80;99.90;;;;;;4912562;29;20772;-53
2021/11/17 05:13:15;;;;;;;1.15;1.00;;;7.80;99.90;;;;;;4911113;29;20098;-52
2021/11/17 05:15:44;;;;;;;1.50;1.13;;;7.80;99.90;;;;;;4895974;29;20154;-56
2021/11/17 05:18:25;;;;;;;1.30;1.17;;;7.70;99.90;;;;;;4911939;29;20062;-55
2021/11/17 05:21:18;;;;;;;2.20;1.40;;;7.70;99.90;;;;;;4912595;29;20459;-52
2021/11/17 05:23:44;;;;;;;1.23;1.10;;;7.70;99.90;;;;;;4912078;29;20131;-55
2021/11/17 05:26:29;;;;;;;1.90;1.08;;;7.70;99.90;;;;;;4912291;29;20253;-54
2021/11/17 05:28:56;;;;;;;3.25;1.65;;;7.70;99.90;;;;;;4911069;29;20592;-56
2021/11/17 05:31:35;;;;;;;1.80;1.60;;;7.80;99.90;;;;;;4912741;29;20131;-56
2021/11/17 05:34:30;;;;;;;2.05;1.50;;;7.90;99.90;;;;;;4912188;29;20092;-56
2021/11/17 05:37:19;;;;;;;1.50;1.30;;;8.00;99.90;;;;;;4894924;29;20052;-55
2021/11/17 05:40:31;;;;;;;3.90;1.50;;;8.00;99.90;;;;;;4912157;29;20128;-55
2021/11/17 05:43:35;;;;;;;2.10;1.50;;;8.10;99.90;;;;;;4874334;29;20055;-55
2021/11/17 05:46:08;;;;;;;;;;;8.00;99.90;;;;;;4912808;29;20080;-57
2021/11/17 05:48:38;;;;;;;1.52;1.40;;;8.00;99.90;;;;;;4902731;29;19923;-55
2021/11/17 05:51:08;;;;;;;2.15;1.55;;;8.00;99.90;;;;;;4892838;29;20088;-55
2021/11/17 05:53:46;;;;;;;1.90;1.35;;;8.00;99.90;;;;;;4909818;29;20080;-54
2021/11/17 05:56:37;;;;;;;2.20;1.42;;;7.90;99.90;;;;;;4901353;29;20087;-55
2021/11/17 05:59:34;;;;;;;2.65;1.10;;;7.90;99.90;;;;;;4889355;29;20080;-54
2021/11/17 06:02:38;;;;;;;1.52;1.20;;;7.90;99.90;;;;;;4904600;29;20095;-56
2021/11/17 06:05:04;;;;;;;1.95;1.70;;;7.90;99.90;;;;;;4895469;29;20085;-55
2021/11/17 06:07:31;;;;;;;2.03;1.40;;;7.90;99.90;;;;;;4903701;29;20082;-55
2021/11/17 06:10:15;;;;;;;2.60;1.45;;;7.80;99.90;;;;;;4907581;29;20102;-53
2021/11/17 06:12:42;;;;;;;3.08;1.60;;;7.90;99.90;;;;;;4860493;29;20101;-52
2021/11/17 06:15:12;;;;;;;3.33;1.83;;;8.00;99.90;;;;;;4861595;29;20091;-56
2021/11/17 06:17:39;;;;;;;2.45;1.70;;;8.00;99.90;;;;;;4852600;29;20450;-55
2021/11/17 06:20:09;;;;;;;3.30;1.88;;;8.10;99.90;;;;;;4858007;29;20462;-52
2021/11/17 06:22:35;;;;;;;2.55;1.73;;;8.10;99.90;;;;;;4846102;29;20561;-54
2021/11/17 06:25:07;;;;;;;4.10;1.92;;;8.20;99.90;;;;;;4841551;29;20089;-55
2021/11/17 06:27:34;;;;;;;2.20;1.60;;;8.20;99.90;;;;;;4857922;29;20500;-54
2021/11/17 06:30:03;;;;;;;3.58;2.45;;;8.10;99.90;;;;;;4857278;29;20136;-54
2021/11/17 06:32:30;;;;;;;2.63;1.80;;;8.10;99.90;;;;;;4858777;29;20132;-55
2021/11/17 06:34:58;;;;;;;2.58;1.63;;;8.20;99.90;;;;;;4860999;29;20048;-56
2021/11/17 06:37:27;;;;;;;2.03;1.60;;;8.20;99.90;;;;;;4859440;29;20106;-56
2021/11/17 06:39:55;;;;;;;2.80;1.75;;;8.20;99.90;;;;;;4856387;29;20685;-55
2021/11/17 06:42:30;;;;;;;2.30;1.67;;;8.20;99.90;;;;;;4853680;29;20454;-52
2021/11/17 06:44:58;;;;;;;2.03;1.70;;;8.20;99.90;;;;;;4854956;29;20550;-54
2021/11/17 06:47:24;;;;;;;2.78;2.17;;;8.30;99.90;;;;;;4854811;29;20653;-56
2021/11/17 06:49:53;;;;;;;4.25;2.15;;;8.30;99.90;;;;;;4855822;29;20451;-54
2021/11/17 06:52:21;;;;;;;2.38;1.77;;;8.40;99.90;;;;;;4851371;29;20089;-53
2021/11/17 06:54:48;;;;;;;4.28;2.10;;;8.40;99.90;;;;;;4847869;29;20140;-55
2021/11/17 06:57:18;;;;;;;2.65;2.05;;;8.40;99.90;;;;;;4853897;29;20387;-55
2021/11/17 06:59:46;;;;;;;2.55;1.90;;;8.50;99.90;;;;;;4852871;29;20050;-55
2021/11/17 07:02:13;;;;;;;3.00;2.22;;;8.50;99.90;;;;;;4865903;29;20466;-55
2021/11/17 07:04:40;;;;;;;2.10;1.73;;;8.50;99.90;;;;;;4858146;29;20054;-56
2021/11/17 07:07:08;;;;;;;2.55;2.03;;;8.50;99.90;;;;;;4847214;29;20571;-55
2021/11/17 07:09:36;;;;;;;3.30;2.45;;;8.60;99.90;;;;;;4850091;29;20084;-55
2021/11/17 07:12:03;;;;;;;3.88;2.70;;;8.60;99.90;;;;;;4844802;29;20098;-55
2021/11/17 07:14:30;;;;;;;3.47;2.83;;;8.60;99.90;;;;;;4855446;29;20197;-53
2021/11/17 07:16:58;;;;;;;2.80;1.92;;;8.50;99.90;;;;;;4854595;29;20113;-55
2021/11/17 07:19:24;;;;;;;2.47;1.88;;;8.50;99.90;;;;;;4859548;29;20124;-55
2021/11/17 07:21:56;;;;;;;3.72;1.95;;;8.50;99.90;;;;;;4865815;29;20167;-54
2021/11/17 07:24:23;;;;;;;3.35;2.10;;;8.40;99.90;;;;;;4865501;29;20128;-54
2021/11/17 07:26:50;;;;;;;2.83;2.00;;;8.30;99.90;;;;;;4863782;29;20057;-53
2021/11/17 07:29:16;;;;;;;2.67;2.15;;;8.30;99.90;;;;;;4863126;29;20426;-52
2021/11/17 07:31:43;;;;;;;3.05;1.85;;;8.20;99.90;;;;;;4864142;29;20108;-54
2021/11/17 07:34:11;;;;;;;2.38;1.48;;;8.20;99.90;;;;;;4865279;29;20055;-54
2021/11/17 07:36:40;;;;;;;2.13;1.67;;;8.10;99.90;;;;;;4865187;29;20088;-52
2021/11/17 07:39:07;;;;;;;2.08;1.60;;;8.10;99.90;;;;;;4864900;29;20080;-53
2021/11/17 07:41:33;;;;;;;2.47;1.90;;;8.10;99.90;;;;;;4863986;29;20150;-55
2021/11/17 07:44:00;;;;;;;2.92;1.48;;;8.00;99.90;;;;;;4863246;29;20137;-55
2021/11/17 07:46:29;;;;;;;3.10;2.60;;;8.00;99.90;;;;;;4865683;29;20869;-54
2021/11/17 07:48:57;;;;;;;3.17;2.03;;;8.00;99.90;;;;;;4865105;29;20057;-56
2021/11/17 07:51:24;;;;;;;2.65;1.85;;;7.90;99.90;;;;;;4865457;29;20483;-53
2021/11/17 07:53:50;;;;;;;2.40;1.80;;;7.90;99.90;;;;;;4848086;29;20105;-53
2021/11/17 07:56:17;;;;;;;3.10;1.90;;;7.90;99.90;;;;;;4864403;29;20081;-54
2021/11/17 07:58:45;;;;;;;2.90;2.42;;;7.90;99.90;;;;;;4863622;29;20120;-55
2021/11/17 08:01:13;;;;;;;2.05;1.52;;;7.90;99.90;;;;;;4863993;29;20484;-54
2021/11/17 08:03:42;;;;;;;2.70;2.28;;;7.90;99.90;;;;;;4864413;29;20503;-55
2021/11/17 08:06:10;;;;;;;2.53;2.03;;;7.90;99.90;;;;;;4864555;29;20600;-54
2021/11/17 08:08:37;;;;;;;2.28;1.88;;;8.00;99.90;;;;;;4863293;29;20152;-52
2021/11/17 08:11:04;;;;;;;2.72;2.17;;;8.00;99.90;;;;;;4863606;29;20558;-54
2021/11/17 08:13:33;;;;;;;3.33;2.25;;;8.00;99.90;;;;;;4861172;29;20053;-55
2021/11/17 08:16:01;;;;;;;3.80;2.10;;;8.00;99.90;;;;;;4864694;29;20098;-54
2021/11/17 08:18:27;;;;;;;3.60;2.28;;;8.00;99.90;;;;;;4864742;29;20057;-51
2021/11/17 08:20:54;;;;;;;2.60;2.10;;;8.00;99.90;;;;;;4853428;29;20959;-53
2021/11/17 08:23:22;;;;;;;2.95;1.88;;;8.00;99.90;;;;;;4853764;29;20131;-54
2021/11/17 08:25:49;;;;;;;2.70;2.08;;;8.00;99.90;;;;;;4857730;29;20108;-53
2021/11/17 08:28:15;;;;;;;2.60;1.92;;;8.00;99.90;;;;;;4844056;29;20545;-53
2021/11/17 08:30:42;;;;;;;3.38;2.10;;;8.00;99.90;;;;;;4848121;29;20077;-53
2021/11/17 08:33:09;;;;;;;3.20;2.20;;;8.00;99.90;;;;;;4846889;29;20132;-52
2021/11/17 08:35:36;;;;;;;2.50;1.88;;;8.00;99.90;;;;;;4856626;29;20081;-54
2021/11/17 08:38:05;;;;;;;2.13;1.70;;;8.10;99.90;;;;;;4846136;29;20168;-54
2021/11/17 08:40:34;;;;;;;2.70;2.10;;;8.10;99.90;;;;;;4857194;29;20105;-54
2021/11/17 08:43:01;;;;;;;3.42;2.00;;;8.10;99.90;;;;;;4856284;29;20140;-54
2021/11/17 08:45:28;;;;;;;3.38;2.38;;;8.10;99.90;;;;;;4865436;29;20131;-55
2021/11/17 08:47:55;;;;;;;4.45;3.13;;;8.20;99.90;;;;;;4858299;29;20117;-55
2021/11/17 08:50:24;;;;;;;3.67;2.78;;;8.20;99.90;;;;;;4860948;29;20565;-55
2021/11/17 08:52:51;;;;;;;4.15;2.70;;;8.20;99.90;;;;;;4863964;29;20086;-50
2021/11/17 08:55:19;;;;;;;3.83;2.60;;;8.30;99.90;;;;;;4866230;29;20060;-54
2021/11/17 08:57:47;;;;;;;3.50;2.67;;;8.30;99.90;;;;;;4863545;29;20223;-50
2021/11/17 09:00:16;;;;;;;3.28;2.90;;;8.40;99.90;;;;;;4858793;29;20136;-55
2021/11/17 09:02:50;;;;;;;4.38;2.95;;;8.40;99.90;;;;;;4860389;29;20062;-55
2021/11/17 09:05:21;;;;;;;3.75;2.67;;;8.40;99.90;;;;;;4859241;29;20045;-53
2021/11/17 09:07:53;;;;;;;3.67;2.70;;;8.50;99.90;;;;;;4861016;29;20053;-56
2021/11/17 09:10:22;;;;;;;4.30;3.03;;;8.50;99.90;;;;;;4859019;29;20056;-53
2021/11/17 09:12:49;;;;;;;5.45;2.60;;;8.60;99.90;;;;;;4886497;29;20156;-54
2021/11/17 09:15:16;;;;;;;3.35;2.53;;;8.70;99.90;;;;;;4904516;29;20123;-56
2021/11/17 09:17:43;;;;;;;5.10;3.00;;;8.80;99.90;;;;;;4881644;29;20468;-53
2021/11/17 09:20:10;;;;;;;3.42;2.50;;;8.80;99.90;;;;;;4872111;29;20128;-55
2021/11/17 09:22:37;;;;;;;3.83;2.45;;;8.90;99.90;;;;;;4903452;29;20167;-54
2021/11/17 09:25:05;;;;;;;2.90;2.25;;;9.00;99.90;;;;;;4903200;29;20048;-54
2021/11/17 09:27:32;;;;;;;3.13;2.50;;;9.20;99.90;;;;;;4892727;29;20356;-53
2021/11/17 09:29:59;;;;;;;2.92;2.13;;;9.30;99.90;;;;;;4888035;29;20505;-54
2021/11/17 09:32:26;;;;;;;4.50;2.42;;;9.40;99.90;;;;;;4897981;29;20123;-55
2021/11/17 09:34:53;;;;;;;4.70;2.63;;;9.50;99.90;;;;;;4875510;29;20210;-53
2021/11/17 09:37:24;;;;;;;4.32;2.35;;;9.50;99.90;;;;;;4902658;29;20044;-54
2021/11/17 09:39:53;;;;;;;5.32;2.20;;;9.50;99.90;;;;;;4897514;29;20124;-55
2021/11/17 09:42:20;;;;;;;3.75;2.58;;;9.50;99.90;;;;;;4898375;29;20052;-53
2021/11/17 09:44:47;;;;;;;4.75;1.95;;;9.50;99.90;;;;;;4875515;29;20136;-55
2021/11/17 09:47:15;;;;;;;5.93;2.55;;;9.50;99.90;;;;;;4876498;29;20076;-55
2021/11/17 09:49:57;;;;;;;6.57;2.42;;;9.50;99.90;;;;;;4894053;29;20092;-50
2021/11/17 09:52:35;;;;;;;5.57;2.15;;;9.40;99.90;;;;;;4878883;29;20084;-54
2021/11/17 09:55:29;;;;;;;6.15;2.40;;;9.50;99.90;;;;;;4909798;29;20127;-55
2021/11/17 09:58:30;;;;;;;6.88;2.25;;;9.50;99.90;;;;;;4906320;29;20230;-54
2021/11/17 10:01:14;;;;;;;5.55;2.42;;;9.50;99.90;;;;;;4894547;29;20279;-54
2021/11/17 10:03:53;;;;;;;4.90;2.13;;;9.50;99.90;;;;;;4856680;29;20108;-53
2021/11/17 10:14:53;;;;;;;6.47;2.58;;;9.80;99.90;;;;;;4876297;29;20088;-52
2021/11/17 10:17:36;;;;;;;5.03;2.25;;;9.80;99.90;;;;;;4891482;29;20423;-55
2021/11/17 10:20:11;;;;;;;9.65;3.13;;;9.90;99.90;;;;;;4908078;29;20261;-55
2021/11/17 10:22:38;;;;;;;6.07;2.70;;;9.90;99.90;;;;;;4909921;29;20175;-55
2021/11/17 10:25:10;;;;;;;8.35;3.00;;;9.90;99.90;;;;;;4906357;29;20131;-55
2021/11/17 10:27:44;;;;;;;8.25;2.70;;;10.00;99.90;;;;;;4906380;29;20563;-55
2021/11/17 10:30:15;;;;;;;9.68;2.67;;;10.00;99.50;;;;;;4874281;29;20361;-54
2021/11/17 10:33:12;;;;;;;8.25;3.50;;;10.10;99.50;;;;;;4893623;29;20323;-54
2021/11/17 10:36:01;;;;;;;8.80;2.95;;;10.20;99.20;;;;;;4907460;29;20134;-55
2021/11/17 10:38:50;;;;;;;11.32;3.20;;;10.20;98.30;;;;;;4906779;29;20920;-54
2021/11/17 10:41:26;;;;;;;10.45;3.05;;;10.30;98.50;;;;;;4889360;29;20159;-51
2021/11/17 10:44:04;;;;;;;7.50;3.30;;;10.30;98.30;;;;;;4889309;29;20138;-54
2021/11/17 10:46:34;;;;;;;10.80;2.65;;;10.30;98.20;;;;;;4906539;29;20179;-54
2021/11/17 10:49:14;;;;;;;7.50;2.63;;;10.40;97.80;;;;;;4906177;29;20131;-54
2021/11/17 10:51:52;;;;;;;7.70;2.42;;;10.40;97.60;;;;;;4906669;29;20670;-52
2021/11/17 10:54:26;;;;;;;6.10;2.40;;;10.40;97.50;;;;;;4887142;29;20052;-55
2021/11/17 10:57:03;;;;;;;9.32;2.47;;;10.50;97.90;;;;;;4881573;29;20414;-54
2021/11/17 10:59:30;;;;;;;9.30;3.15;;;10.50;97.30;;;;;;4905559;29;20445;-54
2021/11/17 11:01:57;;;;;;;8.77;2.38;;;10.60;97.60;;;;;;4889294;29;20090;-53
2021/11/17 11:04:27;;;;;;;8.27;2.67;;;10.60;97.20;;;;;;4873251;29;20449;-53
2021/11/17 11:07:14;;;;;;;8.88;2.85;;;10.60;96.90;;;;;;4873566;29;20088;-54
2021/11/17 11:09:47;;;;;;;8.98;3.53;;;10.70;96.80;;;;;;4906027;29;20076;-56
2021/11/17 11:12:15;;;;;;;13.43;3.10;;;10.70;96.80;;;;;;4890959;29;20060;-51
2021/11/17 11:14:49;;;;;;;10.00;2.67;;;10.80;96.10;;;;;;4887907;29;20115;-53
2021/11/17 11:17:27;;;;;;;6.70;2.65;;;10.80;96.30;;;;;;4888604;29;20519;-53
2021/11/17 11:20:36;;;;;;;7.72;2.67;;;10.90;96.70;;;;;;4905988;29;20048;-52
2021/11/17 11:23:06;;;;;;;6.35;2.40;;;11.00;96.40;;;;;;4828058;29;20061;-51
2021/11/17 11:26:07;;;;;;;5.88;2.30;;;11.00;96.20;;;;;;4896161;29;20088;-54
2021/11/17 11:28:55;;;;;;;8.38;2.80;;;11.10;96.30;;;;;;4884719;29;20059;-50
2021/11/17 11:31:36;;;;;;;7.93;2.67;;;11.10;95.50;;;;;;4871177;29;20100;-53
2021/11/17 11:34:03;;;;;;;5.88;2.00;;;11.10;95.70;;;;;;4883550;29;20060;-52
2021/11/17 11:36:31;;;;;;;6.30;2.22;;;11.20;95.40;;;;;;4905704;29;20484;-55
2021/11/17 11:39:01;;;;;;;7.35;2.50;;;11.20;95.30;;;;;;4905144;29;20080;-53
2021/11/17 11:41:35;;;;;;;5.78;2.55;;;11.20;95.00;;;;;;4905535;29;20052;-54
2021/11/17 11:44:20;;;;;;;7.70;2.13;;;11.30;95.60;;;;;;4903943;29;20525;-53
2021/11/17 11:47:10;;;;;;;6.65;2.25;;;11.40;95.40;;;;;;4905748;29;20280;-55
2021/11/17 11:49:38;;;;;;;7.63;2.75;;;11.60;94.30;;;;;;4869733;29;20466;-55
2021/11/17 11:52:23;;;;;;;6.40;2.95;;;11.70;94.10;;;;;;4889120;29;20055;-55
2021/11/17 11:54:56;;;;;;;8.38;3.20;;;11.80;93.30;;;;;;4905031;29;20197;-54
2021/11/17 11:57:31;;;;;;;5.90;2.67;;;11.90;93.70;;;;;;4904453;29;20072;-55
2021/11/17 12:00:08;;;;;;;4.65;1.90;;;12.10;93.90;;;;;;4904232;29;20512;-54
2021/11/17 12:02:50;;;;;;;7.15;2.78;;;12.20;92.70;;;;;;4905257;29;20103;-52
2021/11/17 12:05:36;;;;;;;6.25;2.40;;;12.30;92.00;;;;;;4905459;29;21231;-55
2021/11/17 12:08:13;;;;;;;7.40;2.28;;;12.40;91.90;;;;;;4904166;29;20095;-56
2021/11/17 12:11:06;;;;;;;6.28;2.20;;;12.50;92.10;;;;;;4888290;29;20134;-51
2021/11/17 12:13:45;;;;;;;7.17;3.03;;;12.60;92.00;;;;;;4892828;29;20472;-56
2021/11/17 12:16:12;;;;;;;6.18;2.67;;;12.70;91.80;;;;;;4906033;29;20456;-55
2021/11/17 12:18:46;;;;;;;8.13;2.63;;;12.80;90.80;;;;;;4911467;29;20056;-55
2021/11/17 12:21:43;;;;;;;5.57;2.65;;;12.90;91.00;;;;;;4909476;29;20075;-56
2021/11/17 12:24:11;;;;;;;7.15;2.85;;;13.00;91.10;;;;;;4911110;29;20365;-55
2021/11/17 12:26:45;;;;;;;5.43;2.20;;;13.20;91.60;;;;;;4910464;29;20106;-55
2021/11/17 12:29:21;;;;;;;5.70;2.47;;;13.40;90.80;;;;;;4874708;29;20061;-54
2021/11/17 12:32:04;;;;;;;4.45;2.47;;;13.50;89.70;;;;;;4876386;29;20094;-54
2021/11/17 12:35:00;;;;;;;6.95;2.78;;;13.70;88.40;;;;;;4912054;29;20086;-53
2021/11/17 12:37:55;;;;;;;5.22;2.20;;;13.70;88.50;;;;;;4909286;29;20155;-53
2021/11/17 12:40:42;;;;;;;6.68;2.20;;;13.80;86.50;;;;;;4904055;29;20165;-54
2021/11/17 12:43:12;;;;;;;4.88;2.30;;;13.80;87.50;;;;;;4909114;29;20220;-56
2021/11/17 12:46:00;;;;;;;4.45;2.00;;;14.00;87.20;;;;;;4906478;29;20661;-56
2021/11/17 12:48:40;;;;;;;5.55;1.95;;;14.30;86.20;;;;;;4893109;29;20429;-56
2021/11/17 12:51:19;;;;;;;4.60;2.13;;;14.40;85.40;;;;;;4872519;29;20044;-55
2021/11/17 12:53:56;;;;;;;4.45;1.98;;;14.40;85.20;;;;;;4876258;29;20142;-48
2021/11/17 12:56:29;;;;;;;5.55;2.03;;;14.50;84.70;;;;;;4886686;29;20139;-52
2021/11/17 12:59:01;;;;;;;5.40;2.38;;;14.40;84.60;;;;;;4890712;29;20055;-55
2021/11/17 13:01:36;;;;;;;9.80;2.83;;;14.40;84.90;;;;;;4907068;29;20111;-54
2021/11/17 13:04:13;;;;;;;7.35;2.78;;;14.40;84.70;;;;;;4899187;29;20103;-54
2021/11/17 13:06:39;;;;;;;5.15;2.13;;;14.20;85.10;;;;;;4892762;29;20174;-47
2021/11/17 13:09:27;;;;;;;6.03;2.28;;;14.40;85.20;;;;;;4910643;29;20110;-54
2021/11/17 13:12:16;;;;;;;6.03;2.67;;;14.60;84.50;;;;;;4893775;29;20155;-55
2021/11/17 13:14:43;;;;;;;6.70;2.50;;;14.40;84.80;;;;;;4883047;29;20060;-54
2021/11/17 13:17:23;;;;;;;6.93;2.45;;;13.90;86.60;;;;;;4905800;29;20496;-53
2021/11/17 13:20:16;;;;;;;8.85;2.42;;;13.90;87.30;;;;;;4902504;29;20055;-52
2021/11/17 13:22:51;;;;;;;7.13;2.30;;;14.00;87.60;;;;;;4908915;29;20135;-52
2021/11/17 13:25:30;;;;;;;7.82;2.92;;;14.00;86.60;;;;;;4895254;29;20136;-51
2021/11/17 13:28:01;;;;;;;4.88;2.33;;;14.10;88.20;;;;;;4894130;29;20497;-54
2021/11/17 13:30:30;;;;;;;6.75;2.25;;;14.40;86.40;;;;;;4904447;29;20048;-54
2021/11/17 13:32:58;;;;;;;6.00;2.22;;;14.60;84.80;;;;;;4906116;29;20052;-52
2021/11/17 13:35:36;;;;;;;4.68;2.08;;;14.80;84.80;;;;;;4889816;29;20139;-55
2021/11/17 13:38:23;;;;;;;5.32;1.92;;;14.90;84.10;;;;;;4897656;29;20103;-53
2021/11/17 13:40:52;;;;;;;4.57;1.75;;;14.80;84.20;;;;;;4908814;29;20052;-53
2021/11/17 13:43:19;;;;;;;4.70;1.85;;;14.90;83.90;;;;;;4905371;29;20064;-55
2021/11/17 13:45:47;;;;;;;3.92;1.88;;;14.60;83.10;;;;;;4908309;29;20112;-54
2021/11/17 13:48:15;;;;;;;7.38;2.20;;;14.70;83.60;;;;;;4907666;29;20056;-53
2021/11/17 13:50:42;;;;;;;4.13;1.60;;;14.80;82.80;;;;;;4878659;29;20137;-54
2021/11/17 13:53:10;;;;;;;6.25;2.22;;;14.70;81.90;;;;;;4888310;29;20427;-54
2021/11/17 13:55:43;;;;;;;3.90;1.88;;;14.70;80.30;;;;;;4888808;29;20048;-54
2021/11/17 13:58:10;;;;;;;5.32;1.65;;;14.80;79.30;;;;;;4872371;29;20140;-54
2021/11/17 14:00:39;;;;;;;4.32;1.98;;;14.90;78.40;;;;;;4892192;29;20136;-52
2021/11/17 14:03:06;;;;;;;5.47;1.92;;;14.60;80.40;;;;;;4892465;29;20190;-54
2021/11/17 14:05:34;;;;;;;4.07;1.85;;;14.60;79.00;;;;;;4908674;29;20261;-53
2021/11/17 14:08:01;;;;;;;4.90;1.98;;;14.70;78.80;;;;;;4899279;29;20127;-54
2021/11/17 14:10:32;;;;;;;4.53;1.80;;;14.90;79.60;;;;;;4894842;29;20076;-55
2021/11/17 14:13:00;;;;;;;2.63;1.17;;;15.20;77.60;;;;;;4896834;29;20496;-54
2021/11/17 14:15:27;;;;;;;3.53;1.35;;;15.60;76.40;;;;;;4902731;29;20063;-55
2021/11/17 14:17:56;;;;;;;4.95;1.40;;;15.80;73.90;;;;;;4893588;29;20155;-54
2021/11/17 14:20:23;;;;;;;6.63;1.88;;;15.80;72.40;;;;;;4893578;29;20088;-55
2021/11/17 14:22:50;;;;;;;3.55;1.40;;;15.80;72.40;;;;;;4877481;29;20124;-56
2021/11/17 14:25:19;;;;;;;4.63;1.60;;;15.70;73.00;;;;;;4893843;29;20489;-53
2021/11/17 14:27:51;;;;;;;3.95;1.50;;;15.60;72.70;;;;;;4897889;29;20079;-56
2021/11/17 14:30:24;;;;;;;5.57;1.70;;;15.20;75.50;;;;;;4901064;29;20155;-52
2021/11/17 14:32:51;;;;;;;;;;;15.00;76.90;;;;;;4902080;29;20132;-54
2021/11/17 14:35:18;;;;;;;7.28;1.65;;;14.80;77.40;;;;;;4905549;29;19969;-52
2021/11/17 14:37:48;;;;;;;5.05;1.80;;;14.70;78.60;;;;;;4904841;29;20583;-53
2021/11/17 14:40:16;;;;;;;7.05;2.10;;;14.50;78.30;;;;;;4891728;29;20417;-53
2021/11/17 14:42:43;;;;;;;4.75;2.03;;;14.20;79.40;;;;;;4898743;29;20131;-55
2021/11/17 14:45:17;;;;;;;5.90;2.35;;;14.00;79.80;;;;;;4898934;29;20048;-53
2021/11/17 14:47:44;;;;;;;6.35;1.75;;;13.80;81.50;;;;;;4898793;29;20058;-53
2021/11/17 14:50:11;;;;;;;4.63;1.73;;;13.70;82.10;;;;;;4875137;29;20049;-53
2021/11/17 14:52:38;;;;;;;4.57;1.73;;;13.70;82.90;;;;;;4884382;29;20128;-54
2021/11/17 14:55:07;;;;;;;4.15;1.48;;;13.90;82.70;;;;;;4902892;29;20136;-55
2021/11/17 14:57:36;;;;;;;3.35;1.40;;;13.90;81.00;;;;;;4891254;29;20139;-54
2021/11/17 15:00:11;;;;;;;3.70;1.67;;;13.90;81.40;;;;;;4887610;29;20051;-54
2021/11/17 15:02:39;;;;;;;4.70;1.90;;;13.80;81.80;;;;;;4901217;29;20427;-54
2021/11/17 15:05:06;;;;;;;4.30;1.73;;;13.60;82.80;;;;;;4896496;29;20095;-52
2021/11/17 15:07:33;;;;;;;4.28;1.55;;;13.50;83.20;;;;;;4897544;29;20147;-51
2021/11/17 15:10:00;;;;;;;3.50;1.67;;;13.40;84.00;;;;;;4896566;29;20063;-52
2021/11/17 15:12:31;;;;;;;4.78;1.65;;;13.30;84.50;;;;;;4884999;29;20060;-51
2021/11/17 15:15:02;;;;;;;4.80;1.67;;;13.20;85.00;;;;;;4890296;29;20505;-53
2021/11/17 15:17:29;;;;;;;6.63;1.92;;;13.00;85.60;;;;;;4886316;29;20151;-53
2021/11/17 15:19:56;;;;;;;2.83;1.55;;;12.90;86.90;;;;;;4881167;29;20492;-52
2021/11/17 15:22:24;;;;;;;3.50;1.70;;;12.80;87.40;;;;;;4902696;29;20127;-52
2021/11/17 15:24:51;;;;;;;5.45;1.88;;;12.80;87.70;;;;;;4890242;29;20052;-53
2021/11/17 15:27:24;;;;;;;6.55;2.10;;;12.80;88.30;;;;;;4890247;29;20135;-51
2021/11/17 15:29:51;;;;;;;5.68;1.80;;;12.70;89.10;;;;;;4898345;29;20048;-51
2021/11/17 15:32:19;;;;;;;3.85;1.50;;;12.60;89.50;;;;;;4902676;29;20926;-51
2021/11/17 15:34:47;;;;;;;6.32;1.92;;;12.50;90.00;;;;;;4901029;29;20664;-52
2021/11/17 15:37:14;;;;;;;4.25;1.60;;;12.40;90.40;;;;;;4895172;29;20484;-49
2021/11/17 15:39:40;;;;;;;8.05;1.67;;;12.30;90.60;;;;;;4876473;29;20151;-54
2021/11/17 15:42:07;;;;;;;3.72;1.40;;;12.20;91.00;;;;;;4880716;29;20508;-52
2021/11/17 15:44:34;;;;;;;4.03;1.80;;;12.10;91.30;;;;;;4901025;29;20123;-54
2021/11/17 15:47:03;;;;;;;8.05;1.85;;;12.00;91.50;;;;;;4901621;29;20139;-53
2021/11/17 15:49:30;;;;;;;3.50;1.27;;;11.80;91.60;;;;;;4893627;29;20056;-53
2021/11/17 15:51:58;;;;;;;5.30;2.08;;;11.80;92.00;;;;;;4899320;29;20083;-51
2021/11/17 15:54:25;;;;;;;3.65;1.45;;;11.70;92.30;;;;;;4899242;29;20487;-54
2021/11/17 15:56:52;;;;;;;4.95;1.40;;;11.60;92.50;;;;;;4899234;29;20131;-52
2021/11/17 15:59:20;;;;;;;3.08;1.33;;;11.60;92.70;;;;;;4882617;29;20063;-53
2021/11/17 16:01:47;;;;;;;5.72;1.40;;;11.40;92.90;;;;;;4883887;29;20714;-49
2021/11/17 16:04:15;;;;;;;4.03;1.52;;;11.40;93.30;;;;;;4895956;29;20082;-53
2021/11/17 16:07:12;;;;;;;3.63;1.33;;;11.30;93.50;;;;;;4897991;29;20068;-49
2021/11/17 16:09:41;;;;;;;3.17;1.48;;;11.20;93.70;;;;;;4884615;29;20130;-53